createdAt,value
2023-01-11T00:00:05.848Z,549.29
2023-01-11T00:01:01.090Z,540.38
2023-01-11T00:01:56.794Z,536.04
2023-01-11T00:02:51.897Z,538.20
2023-01-11T00:03:48.017Z,542.14
2023-01-11T00:04:42.300Z,545.69
2023-01-11T00:05:37.406Z,541.26
2023-01-11T00:06:32.527Z,538.64
2023-01-11T00:07:27.525Z,548.38
2023-01-11T00:08:22.646Z,547.03
2023-01-11T00:09:17.728Z,544.35
2023-01-11T00:10:14.044Z,544.80
2023-01-11T00:11:07.974Z,541.70
2023-01-11T00:12:02.954Z,537.77
2023-01-11T00:12:58.141Z,533.89
2023-01-11T00:13:53.121Z,531.34
2023-01-11T00:14:48.225Z,539.95
2023-01-11T00:15:43.376Z,540.38
2023-01-11T00:16:38.471Z,546.14
2023-01-11T00:17:33.466Z,539.51
2023-01-11T00:18:28.802Z,538.64
2023-01-11T00:19:23.797Z,540.38
2023-01-11T00:20:19.024Z,543.02
2023-01-11T00:21:13.985Z,540.82
2023-01-11T00:22:09.103Z,540.38
2023-01-11T00:23:04.210Z,534.32
2023-01-11T00:23:59.324Z,542.58
2023-01-11T00:24:54.306Z,550.19
2023-01-11T00:25:49.388Z,556.16
2023-01-11T00:26:44.375Z,567.03
2023-01-11T00:27:39.480Z,571.41
2023-01-11T00:28:34.468Z,567.52
2023-01-11T00:29:29.547Z,564.16
2023-01-11T00:30:24.901Z,565.11
2023-01-11T00:31:20.043Z,558.49
2023-01-11T00:32:14.984Z,564.16
2023-01-11T00:33:10.122Z,571.41
2023-01-11T00:34:05.082Z,573.87
2023-01-11T00:35:00.290Z,575.35
2023-01-11T00:35:55.238Z,566.55
2023-01-11T00:36:52.352Z,564.63
2023-01-11T00:37:47.649Z,559.89
2023-01-11T00:38:42.508Z,561.78
2023-01-11T00:39:37.720Z,561.31
2023-01-11T00:40:32.857Z,568.00
2023-01-11T00:41:27.969Z,568.00
2023-01-11T00:42:23.039Z,568.48
2023-01-11T00:43:18.084Z,575.35
2023-01-11T00:44:13.086Z,582.90
2023-01-11T00:45:08.410Z,584.94
2023-01-11T00:46:03.359Z,593.80
2023-01-11T00:46:58.339Z,599.67
2023-01-11T00:47:53.345Z,605.11
2023-01-11T00:48:48.371Z,605.11
2023-01-11T00:49:43.632Z,610.65
2023-01-11T00:50:39.325Z,618.01
2023-01-11T00:51:34.468Z,622.05
2023-01-11T00:52:30.257Z,623.21
2023-01-11T00:53:25.565Z,618.01
2023-01-11T00:54:20.816Z,624.96
2023-01-11T00:55:16.503Z,617.44
2023-01-11T00:56:11.594Z,619.16
2023-01-11T00:57:06.704Z,622.05
2023-01-11T00:58:03.120Z,619.73
2023-01-11T00:58:58.332Z,626.72
2023-01-11T00:59:54.108Z,623.79
2023-01-11T01:00:49.325Z,628.49
2023-01-11T01:01:44.546Z,624.38
2023-01-11T01:02:40.427Z,627.90
2023-01-11T01:03:35.548Z,624.38
2023-01-11T01:04:31.313Z,617.44
2023-01-11T01:05:26.383Z,610.65
2023-01-11T01:06:21.443Z,610.65
2023-01-11T01:07:17.358Z,612.90
2023-01-11T01:08:12.633Z,614.59
2023-01-11T01:09:07.577Z,614.03
2023-01-11T01:10:04.073Z,611.21
2023-01-11T01:10:59.314Z,605.11
2023-01-11T01:11:55.096Z,603.47
2023-01-11T01:12:50.354Z,602.38
2023-01-11T01:13:45.485Z,601.29
2023-01-11T01:14:41.343Z,604.02
2023-01-11T01:15:36.676Z,606.21
2023-01-11T01:16:32.516Z,607.32
2023-01-11T01:17:27.595Z,611.77
2023-01-11T01:18:22.804Z,613.46
2023-01-11T01:19:18.917Z,612.90
2023-01-11T01:20:13.788Z,610.09
2023-01-11T01:21:08.985Z,612.90
2023-01-11T01:22:05.472Z,610.65
2023-01-11T01:23:00.690Z,619.73
2023-01-11T01:23:56.380Z,616.87
2023-01-11T01:24:51.566Z,608.42
2023-01-11T01:25:46.802Z,608.42
2023-01-11T01:26:42.347Z,610.65
2023-01-11T01:27:37.630Z,612.34
2023-01-11T01:28:33.419Z,608.42
2023-01-11T01:29:28.783Z,603.47
2023-01-11T01:30:23.886Z,610.09
2023-01-11T01:31:19.650Z,603.47
2023-01-11T01:32:14.746Z,604.56
2023-01-11T01:33:09.871Z,606.76
2023-01-11T01:34:06.158Z,610.65
2023-01-11T01:35:01.445Z,612.90
2023-01-11T01:35:57.251Z,622.05
2023-01-11T01:36:52.345Z,622.05
2023-01-11T01:37:47.472Z,626.13
2023-01-11T01:38:42.680Z,627.90
2023-01-11T01:39:37.870Z,635.08
2023-01-11T01:40:34.488Z,644.28
2023-01-11T01:41:29.794Z,639.96
2023-01-11T01:42:25.581Z,638.73
2023-01-11T01:43:20.758Z,638.73
2023-01-11T01:44:15.897Z,636.29
2023-01-11T01:45:11.549Z,632.67
2023-01-11T01:46:06.875Z,635.08
2023-01-11T01:47:02.692Z,644.28
2023-01-11T01:47:57.893Z,643.04
2023-01-11T01:48:53.126Z,644.28
2023-01-11T01:49:48.827Z,649.93
2023-01-11T01:50:44.215Z,651.20
2023-01-11T01:51:39.072Z,648.04
2023-01-11T01:52:35.654Z,644.91
2023-01-11T01:53:31.387Z,643.66
2023-01-11T01:54:26.778Z,646.78
2023-01-11T01:55:22.001Z,646.78
2023-01-11T01:56:17.080Z,651.84
2023-01-11T01:57:12.573Z,643.66
2023-01-11T01:58:07.791Z,643.66
2023-01-11T01:59:02.898Z,644.91
2023-01-11T01:59:57.929Z,644.28
2023-01-11T02:00:53.041Z,651.84
2023-01-11T02:01:49.143Z,656.33
2023-01-11T02:02:44.454Z,657.63
2023-01-11T02:03:39.431Z,666.17
2023-01-11T02:04:34.658Z,669.51
2023-01-11T02:05:29.736Z,668.84
2023-01-11T02:06:24.890Z,676.30
2023-01-11T02:07:19.981Z,668.17
2023-01-11T02:08:14.884Z,672.89
2023-01-11T02:09:09.871Z,670.18
2023-01-11T02:10:04.947Z,675.62
2023-01-11T02:11:00.066Z,678.36
2023-01-11T02:11:55.305Z,674.93
2023-01-11T02:12:50.483Z,680.44
2023-01-11T02:13:45.463Z,681.83
2023-01-11T02:14:40.537Z,680.44
2023-01-11T02:15:35.602Z,676.99
2023-01-11T02:16:30.597Z,683.23
2023-01-11T02:17:25.722Z,681.83
2023-01-11T02:18:20.805Z,681.83
2023-01-11T02:19:15.854Z,683.23
2023-01-11T02:20:10.898Z,689.59
2023-01-11T02:21:06.037Z,696.79
2023-01-11T02:22:01.079Z,693.17
2023-01-11T02:22:56.280Z,700.46
2023-01-11T02:23:51.228Z,701.19
2023-01-11T02:24:46.303Z,704.15
2023-01-11T02:25:41.240Z,713.95
2023-01-11T02:26:36.304Z,715.49
2023-01-11T02:27:31.368Z,720.90
2023-01-11T02:28:26.446Z,713.19
2023-01-11T02:29:21.647Z,728.78
2023-01-11T02:30:16.872Z,745.07
2023-01-11T02:31:11.957Z,747.06
2023-01-11T02:32:07.291Z,746.73
2023-01-11T02:33:02.476Z,747.48
2023-01-11T02:33:57.605Z,763.73
2023-01-11T02:34:52.774Z,769.90
2023-01-11T02:35:49.367Z,774.81
2023-01-11T02:36:44.434Z,784.37
2023-01-11T02:37:39.537Z,791.82
2023-01-11T02:38:34.585Z,795.12
2023-01-11T02:39:29.807Z,801.32
2023-01-11T02:40:24.913Z,809.09
2023-01-11T02:41:20.175Z,816.02
2023-01-11T02:42:15.089Z,827.14
2023-01-11T02:43:10.430Z,826.62
2023-01-11T02:44:05.520Z,836.99
2023-01-11T02:45:00.603Z,850.86
2023-01-11T02:45:55.664Z,855.77
2023-01-11T02:46:50.897Z,869.71
2023-01-11T02:47:51.815Z,871.98
2023-01-11T02:48:47.064Z,865.20
2023-01-11T02:49:42.449Z,865.76
2023-01-11T02:50:38.129Z,877.14
2023-01-11T02:51:33.271Z,864.08
2023-01-11T02:52:28.494Z,868.01
2023-01-11T02:53:24.819Z,866.32
2023-01-11T02:54:19.938Z,866.88
2023-01-11T02:55:15.779Z,873.69
2023-01-11T02:56:10.999Z,877.14
2023-01-11T02:57:06.219Z,878.29
2023-01-11T02:58:02.020Z,876.56
2023-01-11T02:58:57.135Z,870.27
2023-01-11T02:59:53.048Z,862.96
2023-01-11T03:00:48.139Z,863.52
2023-01-11T03:01:43.518Z,869.71
2023-01-11T03:02:39.007Z,866.32
2023-01-11T03:03:34.271Z,860.18
2023-01-11T03:04:29.483Z,854.67
2023-01-11T03:05:25.833Z,859.63
2023-01-11T03:06:21.147Z,868.58
2023-01-11T03:07:16.783Z,876.56
2023-01-11T03:08:11.851Z,869.14
2023-01-11T03:09:07.246Z,855.22
2023-01-11T03:10:03.015Z,844.40
2023-01-11T03:10:58.256Z,832.81
2023-01-11T03:11:54.030Z,822.55
2023-01-11T03:12:49.119Z,810.07
2023-01-11T03:13:44.605Z,808.11
2023-01-11T03:14:40.577Z,811.55
2023-01-11T03:15:35.541Z,817.01
2023-01-11T03:16:30.874Z,826.62
2023-01-11T03:17:27.057Z,828.16
2023-01-11T03:18:22.412Z,820.53
2023-01-11T03:19:18.265Z,814.52
2023-01-11T03:20:13.344Z,817.01
2023-01-11T03:21:08.666Z,818.02
2023-01-11T03:22:04.442Z,818.02
2023-01-11T03:22:59.440Z,816.02
2023-01-11T03:23:55.357Z,825.09
2023-01-11T03:24:50.403Z,815.02
2023-01-11T03:25:45.550Z,815.02
2023-01-11T03:26:41.454Z,813.03
2023-01-11T03:27:36.723Z,809.09
2023-01-11T03:28:31.774Z,805.67
2023-01-11T03:29:28.210Z,777.07
2023-01-11T03:30:23.553Z,767.68
2023-01-11T03:31:19.203Z,754.24
2023-01-11T03:32:14.134Z,762.42
2023-01-11T03:33:09.287Z,776.16
2023-01-11T03:34:05.196Z,767.24
2023-01-11T03:35:00.609Z,763.29
2023-01-11T03:35:56.256Z,766.80
2023-01-11T03:36:51.365Z,766.80
2023-01-11T03:37:46.480Z,759.82
2023-01-11T03:38:42.303Z,759.82
2023-01-11T03:39:37.672Z,756.37
2023-01-11T03:40:32.637Z,768.12
2023-01-11T03:41:29.364Z,772.12
2023-01-11T03:42:24.472Z,775.71
2023-01-11T03:43:20.172Z,775.26
2023-01-11T03:44:15.401Z,789.01
2023-01-11T03:45:10.754Z,799.40
2023-01-11T03:46:06.334Z,814.02
2023-01-11T03:47:01.589Z,831.26
2023-01-11T03:47:56.541Z,834.90
2023-01-11T03:48:51.630Z,846.01
2023-01-11T03:49:46.738Z,825.60
2023-01-11T03:50:41.829Z,615.16
2023-01-11T03:51:36.956Z,645.53
2023-01-11T03:52:32.072Z,687.46
2023-01-11T03:53:27.043Z,720.90
2023-01-11T03:54:26.304Z,755.52
2023-01-11T03:55:21.440Z,773.91
2023-01-11T03:56:16.549Z,738.46
2023-01-11T03:57:12.372Z,732.78
2023-01-11T03:58:07.468Z,726.40
2023-01-11T03:59:02.831Z,736.02
2023-01-11T03:59:59.156Z,740.93
2023-01-11T04:00:54.302Z,737.65
2023-01-11T04:01:50.025Z,716.26
2023-01-11T04:02:45.365Z,715.49
2023-01-11T04:03:40.619Z,724.03
2023-01-11T04:04:36.450Z,736.02
2023-01-11T04:05:31.429Z,740.10
2023-01-11T04:06:26.695Z,692.45
2023-01-11T04:07:21.757Z,696.07
2023-01-11T04:08:17.144Z,696.07
2023-01-11T04:09:12.637Z,697.52
2023-01-11T04:10:07.768Z,700.46
2023-01-11T04:11:02.811Z,696.79
2023-01-11T04:11:58.759Z,713.95
2023-01-11T04:12:53.825Z,723.25
2023-01-11T04:13:49.331Z,724.82
2023-01-11T04:14:44.259Z,723.25
2023-01-11T04:15:39.366Z,730.38
2023-01-11T04:16:34.470Z,740.93
2023-01-11T04:17:29.508Z,735.21
2023-01-11T04:18:24.608Z,746.23
2023-01-11T04:19:19.731Z,755.09
2023-01-11T04:20:14.737Z,755.95
2023-01-11T04:21:09.744Z,639.34
2023-01-11T04:22:04.815Z,648.67
2023-01-11T04:23:00.004Z,664.18
2023-01-11T04:23:55.056Z,674.93
2023-01-11T04:24:50.192Z,686.04
2023-01-11T04:25:45.246Z,685.34
2023-01-11T04:26:40.420Z,684.63
2023-01-11T04:27:35.416Z,697.52
2023-01-11T04:28:30.526Z,688.88
2023-01-11T04:29:25.728Z,674.93
2023-01-11T04:30:21.026Z,664.18
2023-01-11T04:31:15.931Z,660.89
2023-01-11T04:32:11.020Z,686.04
2023-01-11T04:33:06.077Z,701.19
2023-01-11T04:34:01.155Z,688.88
2023-01-11T04:34:56.268Z,454.25
2023-01-11T04:35:51.369Z,342.27
2023-01-11T04:36:46.334Z,315.91
2023-01-11T04:37:41.440Z,395.28
2023-01-11T04:38:36.576Z,452.40
2023-01-11T04:39:31.548Z,492.49
2023-01-11T04:40:26.649Z,533.04
2023-01-11T04:41:23.563Z,514.53
2023-01-11T04:42:17.405Z,487.10
2023-01-11T04:43:12.517Z,480.43
2023-01-11T04:44:08.726Z,511.38
2023-01-11T04:45:03.691Z,533.04
2023-01-11T04:45:59.653Z,515.33
2023-01-11T04:46:55.016Z,539.95
2023-01-11T04:47:49.847Z,503.65
2023-01-11T04:48:45.817Z,476.31
2023-01-11T04:49:40.941Z,474.95
2023-01-11T04:50:36.360Z,515.33
2023-01-11T04:51:32.273Z,547.48
2023-01-11T04:52:27.667Z,581.88
2023-01-11T04:53:23.366Z,552.01
2023-01-11T04:54:18.743Z,549.29
2023-01-11T04:55:13.825Z,572.88
2023-01-11T04:56:09.564Z,611.77
2023-01-11T04:57:04.694Z,642.42
2023-01-11T04:58:00.633Z,673.57
2023-01-11T04:58:55.637Z,696.07
2023-01-11T04:59:50.892Z,718.57
2023-01-11T05:00:47.221Z,733.59
2023-01-11T05:01:41.792Z,739.28
2023-01-11T05:02:36.869Z,760.25
2023-01-11T05:03:33.338Z,773.02
2023-01-11T05:04:28.505Z,770.78
2023-01-11T05:05:24.377Z,776.16
2023-01-11T05:06:19.789Z,788.54
2023-01-11T05:07:14.891Z,775.71
2023-01-11T05:08:10.569Z,781.16
2023-01-11T05:09:05.795Z,787.61
2023-01-11T05:10:01.601Z,789.01
2023-01-11T05:10:56.650Z,800.84
2023-01-11T05:11:52.295Z,809.09
2023-01-11T05:12:47.808Z,812.04
2023-01-11T05:13:43.002Z,820.03
2023-01-11T05:14:38.199Z,827.65
2023-01-11T05:15:34.434Z,840.68
2023-01-11T05:16:29.633Z,828.16
2023-01-11T05:17:25.329Z,735.21
2023-01-11T05:18:20.424Z,690.30
2023-01-11T05:19:15.551Z,678.36
2023-01-11T05:20:11.369Z,709.40
2023-01-11T05:21:06.679Z,698.26
2023-01-11T05:22:02.558Z,666.17
2023-01-11T05:22:57.811Z,673.57
2023-01-11T05:23:53.118Z,668.17
2023-01-11T05:24:48.670Z,670.18
2023-01-11T05:25:43.754Z,686.04
2023-01-11T05:26:39.105Z,707.89
2023-01-11T05:27:35.397Z,717.03
2023-01-11T05:28:30.527Z,735.21
2023-01-11T05:29:26.337Z,755.52
2023-01-11T05:30:21.567Z,747.06
2023-01-11T05:31:17.000Z,754.24
2023-01-11T05:32:12.911Z,753.81
2023-01-11T05:33:07.746Z,767.24
2023-01-11T05:34:03.582Z,773.47
2023-01-11T05:34:58.669Z,789.94
2023-01-11T05:35:54.561Z,789.94
2023-01-11T05:36:49.992Z,794.17
2023-01-11T05:37:45.133Z,771.68
2023-01-11T05:38:40.237Z,763.73
2023-01-11T05:39:36.721Z,740.93
2023-01-11T05:40:31.869Z,724.03
2023-01-11T05:41:26.955Z,748.74
2023-01-11T05:42:22.378Z,748.74
2023-01-11T05:43:17.969Z,744.23
2023-01-11T05:44:13.078Z,774.36
2023-01-11T05:45:08.925Z,760.25
2023-01-11T05:46:04.119Z,668.84
2023-01-11T05:46:59.520Z,667.50
2023-01-11T05:47:55.445Z,702.67
2023-01-11T05:48:50.569Z,721.68
2023-01-11T05:49:45.646Z,542.58
2023-01-11T05:50:42.171Z,516.92
2023-01-11T05:51:37.323Z,536.04
2023-01-11T05:52:33.150Z,585.97
2023-01-11T05:53:28.226Z,562.25
2023-01-11T05:54:23.364Z,609.54
2023-01-11T05:55:19.431Z,643.66
2023-01-11T05:56:14.315Z,650.57
2023-01-11T05:57:10.125Z,634.47
2023-01-11T05:58:05.470Z,650.57
2023-01-11T05:59:00.559Z,664.84
2023-01-11T05:59:55.679Z,684.63
2023-01-11T06:00:51.022Z,720.12
2023-01-11T06:01:46.189Z,728.78
2023-01-11T06:02:41.287Z,735.21
2023-01-11T06:03:37.122Z,737.65
2023-01-11T06:04:32.327Z,666.83
2023-01-11T06:05:27.594Z,667.50
2023-01-11T06:06:23.312Z,706.39
2023-01-11T06:07:18.455Z,729.58
2023-01-11T06:08:13.609Z,729.58
2023-01-11T06:09:08.844Z,697.52
2023-01-11T06:10:03.966Z,698.26
2023-01-11T06:10:58.973Z,671.53
2023-01-11T06:11:54.067Z,659.58
2023-01-11T06:12:49.150Z,688.17
2023-01-11T06:13:44.275Z,728.78
2023-01-11T06:14:39.239Z,743.40
2023-01-11T06:15:34.231Z,754.66
2023-01-11T06:16:29.425Z,766.80
2023-01-11T06:17:24.363Z,767.68
2023-01-11T06:18:19.477Z,769.45
2023-01-11T06:19:14.614Z,777.97
2023-01-11T06:20:09.707Z,793.70
2023-01-11T06:21:04.685Z,786.22
2023-01-11T06:21:59.945Z,782.53
2023-01-11T06:22:54.838Z,767.68
2023-01-11T06:23:50.007Z,765.48
2023-01-11T06:24:45.032Z,753.39
2023-01-11T06:25:46.119Z,691.02
2023-01-11T06:26:41.049Z,681.14
2023-01-11T06:27:36.249Z,688.88
2023-01-11T06:28:31.237Z,690.30
2023-01-11T06:29:26.695Z,662.20
2023-01-11T06:30:21.783Z,645.53
2023-01-11T06:31:17.962Z,629.68
2023-01-11T06:32:12.002Z,616.30
2023-01-11T06:33:07.147Z,596.45
2023-01-11T06:34:02.250Z,567.52
2023-01-11T06:34:57.352Z,561.31
2023-01-11T06:35:52.626Z,559.42
2023-01-11T06:36:47.651Z,568.97
2023-01-11T06:37:42.872Z,565.11
2023-01-11T06:38:37.972Z,566.55
2023-01-11T06:39:33.190Z,561.78
2023-01-11T06:40:28.538Z,558.49
2023-01-11T06:41:23.619Z,563.20
2023-01-11T06:42:18.723Z,568.97
2023-01-11T06:43:13.954Z,560.84
2023-01-11T06:44:09.180Z,555.23
2023-01-11T06:45:04.349Z,522.60
2023-01-11T06:45:59.430Z,472.93
2023-01-11T06:46:54.426Z,419.39
2023-01-11T06:47:49.413Z,425.01
2023-01-11T06:48:44.446Z,438.42
2023-01-11T06:49:39.500Z,456.73
2023-01-11T06:50:34.540Z,464.37
2023-01-11T06:51:29.629Z,487.81
2023-01-11T06:52:24.659Z,485.32
2023-01-11T06:53:19.692Z,483.91
2023-01-11T06:54:14.836Z,508.64
2023-01-11T06:55:10.005Z,527.98
2023-01-11T06:56:05.174Z,539.51
2023-01-11T06:57:00.046Z,543.02
2023-01-11T06:57:55.062Z,565.59
2023-01-11T06:58:50.090Z,555.69
2023-01-11T06:59:45.167Z,550.19
2023-01-11T07:00:40.253Z,589.60
2023-01-11T07:01:35.507Z,624.96
2023-01-11T07:02:30.631Z,655.04
2023-01-11T07:03:28.868Z,674.25
2023-01-11T07:04:23.892Z,670.86
2023-01-11T07:05:19.485Z,664.18
2023-01-11T07:06:13.998Z,690.30
2023-01-11T07:07:09.064Z,610.09
2023-01-11T07:08:04.039Z,635.08
2023-01-11T07:08:59.028Z,648.67
2023-01-11T07:09:54.121Z,648.04
2023-01-11T07:10:49.093Z,559.89
2023-01-11T07:11:44.246Z,253.05
2023-01-11T07:12:39.216Z,250.73
2023-01-11T07:13:34.340Z,205.89
2023-01-11T07:14:30.017Z,197.11
2023-01-11T07:15:25.351Z,236.28
2023-01-11T07:16:20.639Z,224.95
2023-01-11T07:17:16.516Z,256.81
2023-01-11T07:18:11.774Z,326.60
2023-01-11T07:19:07.619Z,358.34
2023-01-11T07:20:02.941Z,335.62
2023-01-11T07:20:58.102Z,333.23
2023-01-11T07:21:53.935Z,322.11
2023-01-11T07:22:49.366Z,354.09
2023-01-11T07:23:44.624Z,396.92
2023-01-11T07:24:41.145Z,434.70
2023-01-11T07:25:36.408Z,476.99
2023-01-11T07:26:32.449Z,511.77
2023-01-11T07:27:27.540Z,543.02
2023-01-11T07:28:23.177Z,559.42
2023-01-11T07:29:18.705Z,542.14
2023-01-11T07:30:14.102Z,528.39
2023-01-11T07:31:09.906Z,558.49
2023-01-11T07:32:05.153Z,596.45
2023-01-11T07:33:00.571Z,601.84
2023-01-11T07:33:56.551Z,614.03
2023-01-11T07:34:51.510Z,630.28
2023-01-11T07:35:46.829Z,639.96
2023-01-11T07:36:43.270Z,652.48
2023-01-11T07:37:38.568Z,653.76
2023-01-11T07:38:34.379Z,661.54
2023-01-11T07:39:42.725Z,672.21
2023-01-11T07:40:26.437Z,683.23
2023-01-11T07:41:21.154Z,684.63
2023-01-11T07:42:16.479Z,690.30
2023-01-11T07:43:11.986Z,696.79
2023-01-11T07:44:07.284Z,693.17
2023-01-11T07:45:03.089Z,648.04
2023-01-11T07:45:58.644Z,658.28
2023-01-11T07:46:54.455Z,658.93
2023-01-11T07:47:49.591Z,651.84
2023-01-11T07:48:44.934Z,620.89
2023-01-11T07:49:40.737Z,597.52
2023-01-11T07:50:36.182Z,583.92
2023-01-11T07:51:31.470Z,589.08
2023-01-11T07:52:27.805Z,586.48
2023-01-11T07:53:23.223Z,575.35
2023-01-11T07:54:19.108Z,557.55
2023-01-11T07:55:14.304Z,553.85
2023-01-11T07:56:09.895Z,543.47
2023-01-11T07:57:05.492Z,539.07
2023-01-11T07:58:00.943Z,547.03
2023-01-11T07:58:56.596Z,552.93
2023-01-11T07:59:51.948Z,558.49
2023-01-11T08:00:47.427Z,558.02
2023-01-11T08:01:42.683Z,547.48
2023-01-11T08:02:38.088Z,556.16
2023-01-11T08:03:34.044Z,558.96
2023-01-11T08:04:29.207Z,558.49
2023-01-11T08:05:25.151Z,553.39
2023-01-11T08:06:20.402Z,529.23
2023-01-11T08:07:15.801Z,524.65
2023-01-11T08:08:11.598Z,502.13
2023-01-11T08:09:06.979Z,497.27
2023-01-11T08:10:02.893Z,487.81
2023-01-11T08:10:58.864Z,507.10
2023-01-11T08:11:54.082Z,504.03
2023-01-11T08:12:51.564Z,509.42
2023-01-11T08:13:45.427Z,493.95
2023-01-11T08:14:40.969Z,506.71
2023-01-11T08:15:36.976Z,518.53
2023-01-11T08:16:32.012Z,524.24
2023-01-11T08:17:27.378Z,522.19
2023-01-11T08:18:22.785Z,516.92
2023-01-11T08:19:18.262Z,494.68
2023-01-11T08:20:14.763Z,473.60
2023-01-11T08:21:09.719Z,468.94
2023-01-11T08:22:05.256Z,492.49
2023-01-11T08:23:00.077Z,496.89
2023-01-11T08:23:55.199Z,477.67
2023-01-11T08:24:50.177Z,460.84
2023-01-11T08:25:45.314Z,463.72
2023-01-11T08:26:40.479Z,486.03
2023-01-11T08:27:35.631Z,526.31
2023-01-11T08:28:30.487Z,562.25
2023-01-11T08:29:25.676Z,582.39
2023-01-11T08:30:20.596Z,560.36
2023-01-11T08:31:15.732Z,512.16
2023-01-11T08:32:10.602Z,517.33
2023-01-11T08:33:05.707Z,541.26
2023-01-11T08:34:03.080Z,532.19
2023-01-11T08:34:58.186Z,551.56
2023-01-11T08:35:53.180Z,539.07
2023-01-11T08:36:48.292Z,538.64
2023-01-11T08:37:43.297Z,531.34
2023-01-11T08:38:38.581Z,552.93
2023-01-11T08:39:33.589Z,568.48
2023-01-11T08:40:28.730Z,567.03
2023-01-11T08:41:23.813Z,563.68
2023-01-11T08:42:18.874Z,536.47
2023-01-11T08:43:14.131Z,502.13
2023-01-11T08:44:09.648Z,475.63
2023-01-11T08:45:05.422Z,441.61
2023-01-11T08:46:00.939Z,436.12
2023-01-11T08:46:56.331Z,370.06
2023-01-11T08:47:52.418Z,372.58
2023-01-11T08:48:47.760Z,390.88
2023-01-11T08:49:43.432Z,387.24
2023-01-11T08:50:38.669Z,370.06
2023-01-11T08:51:34.108Z,378.17
2023-01-11T08:52:29.904Z,394.58
2023-01-11T08:53:25.256Z,378.17
2023-01-11T08:54:20.841Z,348.82
2023-01-11T08:55:16.959Z,335.27
2023-01-11T08:56:12.328Z,344.42
2023-01-11T08:57:08.163Z,385.68
2023-01-11T08:58:03.525Z,409.85
2023-01-11T08:58:59.046Z,409.35
2023-01-11T08:59:54.770Z,424.73
2023-01-11T09:00:50.153Z,441.90
2023-01-11T09:01:45.994Z,443.96
2023-01-11T09:02:41.455Z,440.74
2023-01-11T09:03:37.021Z,439.28
2023-01-11T09:04:32.428Z,447.54
2023-01-11T09:05:27.811Z,435.27
2023-01-11T09:06:23.494Z,431.61
2023-01-11T09:07:18.912Z,426.64
2023-01-11T09:08:14.413Z,428.01
2023-01-11T09:09:09.687Z,422.05
2023-01-11T09:10:06.121Z,412.13
2023-01-11T09:11:01.668Z,419.92
2023-01-11T09:11:58.091Z,430.77
2023-01-11T09:12:52.765Z,436.98
2023-01-11T09:13:48.125Z,438.71
2023-01-11T09:14:43.926Z,429.11
2023-01-11T09:15:39.564Z,415.47
2023-01-11T09:16:35.280Z,417.82
2023-01-11T09:17:30.651Z,422.58
2023-01-11T09:18:26.077Z,423.65
2023-01-11T09:19:22.046Z,424.73
2023-01-11T09:20:17.297Z,421.78
2023-01-11T09:21:12.648Z,420.71
2023-01-11T09:22:09.269Z,423.65
2023-01-11T09:23:04.639Z,422.05
2023-01-11T09:24:00.029Z,396.22
2023-01-11T09:24:55.931Z,385.68
2023-01-11T09:25:50.797Z,386.79
2023-01-11T09:26:45.810Z,389.73
2023-01-11T09:27:41.037Z,393.41
2023-01-11T09:28:36.230Z,390.42
2023-01-11T09:29:31.023Z,382.58
2023-01-11T09:30:26.009Z,385.01
2023-01-11T09:31:21.049Z,391.33
2023-01-11T09:32:16.040Z,390.42
2023-01-11T09:33:11.146Z,396.22
2023-01-11T09:34:06.271Z,403.41
2023-01-11T09:35:02.358Z,404.88
2023-01-11T09:35:56.387Z,398.82
2023-01-11T09:36:51.451Z,399.06
2023-01-11T09:37:49.364Z,400.98
2023-01-11T09:38:44.325Z,397.87
2023-01-11T09:39:39.330Z,409.60
2023-01-11T09:40:34.422Z,405.37
2023-01-11T09:41:29.479Z,402.43
2023-01-11T09:42:24.525Z,405.62
2023-01-11T09:43:19.455Z,399.78
2023-01-11T09:44:14.562Z,392.72
2023-01-11T09:45:09.572Z,390.65
2023-01-11T09:46:06.726Z,357.56
2023-01-11T09:47:00.577Z,340.85
2023-01-11T09:47:55.966Z,320.85
2023-01-11T09:48:51.773Z,269.69
2023-01-11T09:49:47.127Z,280.29
2023-01-11T09:50:42.776Z,287.91
2023-01-11T09:51:38.514Z,281.49
2023-01-11T09:52:33.880Z,291.75
2023-01-11T09:53:29.752Z,285.40
2023-01-11T09:54:25.115Z,250.92
2023-01-11T09:55:20.636Z,249.96
2023-01-11T09:56:16.310Z,251.88
2023-01-11T09:57:11.841Z,252.08
2023-01-11T09:58:07.126Z,240.97
2023-01-11T09:59:03.611Z,241.32
2023-01-11T09:59:59.006Z,253.05
2023-01-11T10:00:54.851Z,266.19
2023-01-11T10:01:50.161Z,259.25
2023-01-11T10:02:45.551Z,261.10
2023-01-11T10:03:41.371Z,265.33
2023-01-11T10:04:36.936Z,267.71
2023-01-11T10:05:32.709Z,269.47
2023-01-11T10:06:27.987Z,274.65
2023-01-11T10:07:23.620Z,280.29
2023-01-11T10:18:28.851Z,331.21
2023-01-11T10:18:32.541Z,323.06
2023-01-11T10:18:39.147Z,340.85
2023-01-11T10:18:39.892Z,335.96
2023-01-11T10:19:16.959Z,334.25
2023-01-11T10:19:39.775Z,354.85
2023-01-11T10:20:24.496Z,357.56
2023-01-11T10:21:18.174Z,356.01
2023-01-11T10:22:13.605Z,362.70
2023-01-11T10:23:08.732Z,366.34
2023-01-11T10:24:03.805Z,348.08
2023-01-11T10:24:58.798Z,341.20
2023-01-11T10:25:53.873Z,344.06
2023-01-11T10:26:49.048Z,350.68
2023-01-11T10:27:44.083Z,348.82
2023-01-11T10:28:39.148Z,309.35
2023-01-11T10:29:34.363Z,301.67
2023-01-11T10:30:29.374Z,298.93
2023-01-11T10:31:24.526Z,310.52
2023-01-11T10:32:19.495Z,301.40
2023-01-11T10:33:14.576Z,302.79
2023-01-11T10:34:09.707Z,310.82
2023-01-11T10:35:04.847Z,315.30
2023-01-11T10:36:01.312Z,308.77
2023-01-11T10:36:56.772Z,280.52
2023-01-11T10:37:51.994Z,268.36
2023-01-11T10:38:48.529Z,263.62
2023-01-11T10:39:43.900Z,279.33
2023-01-11T10:40:39.262Z,301.12
2023-01-11T10:41:35.618Z,316.52
2023-01-11T10:42:30.954Z,325.62
2023-01-11T10:43:26.216Z,344.06
2023-01-11T10:44:21.573Z,351.06
2023-01-11T10:45:16.672Z,322.74
2023-01-11T10:46:11.914Z,315.30
2023-01-11T10:47:06.784Z,338.04
2023-01-11T10:48:01.863Z,345.15
2023-01-11T10:48:56.995Z,352.19
2023-01-11T10:49:52.035Z,347.34
2023-01-11T10:50:47.308Z,332.89
2023-01-11T10:51:42.325Z,296.49
2023-01-11T10:52:37.401Z,300.84
2023-01-11T10:53:32.515Z,282.70
2023-01-11T10:54:27.753Z,290.71
2023-01-11T10:55:22.735Z,302.23
2023-01-11T10:56:17.978Z,316.21
2023-01-11T10:57:12.792Z,307.33
2023-01-11T10:58:07.965Z,328.89
2023-01-11T10:59:03.037Z,341.91
2023-01-11T10:59:58.032Z,335.62
2023-01-11T11:00:53.071Z,308.48
2023-01-11T11:01:48.072Z,313.49
2023-01-11T11:02:43.052Z,311.41
2023-01-11T11:03:38.831Z,295.16
2023-01-11T11:04:36.309Z,291.49
2023-01-11T11:05:31.424Z,275.11
2023-01-11T11:06:26.430Z,290.97
2023-01-11T11:07:21.520Z,296.49
2023-01-11T11:08:16.487Z,301.40
2023-01-11T11:09:11.632Z,290.71
2023-01-11T11:10:06.653Z,285.65
2023-01-11T11:11:01.637Z,289.94
2023-01-11T11:11:56.615Z,301.40
2023-01-11T11:12:51.668Z,295.96
2023-01-11T11:13:47.638Z,297.57
2023-01-11T11:14:43.159Z,300.29
2023-01-11T11:15:39.113Z,301.67
2023-01-11T11:16:34.456Z,308.19
2023-01-11T11:17:30.031Z,309.06
2023-01-11T11:18:25.566Z,306.46
2023-01-11T11:19:20.903Z,307.04
2023-01-11T11:20:16.761Z,307.61
2023-01-11T11:21:12.262Z,310.82
2023-01-11T11:22:07.646Z,299.74
2023-01-11T11:23:03.375Z,307.33
2023-01-11T11:23:58.730Z,307.04
2023-01-11T11:24:54.127Z,295.43
2023-01-11T11:25:50.742Z,301.12
2023-01-11T11:26:45.842Z,306.18
2023-01-11T11:27:41.759Z,309.35
2023-01-11T11:28:37.166Z,307.90
2023-01-11T11:29:32.575Z,308.48
2023-01-11T11:30:28.479Z,313.79
2023-01-11T11:31:23.901Z,321.16
2023-01-11T11:32:19.401Z,318.98
2023-01-11T11:33:14.799Z,324.34
2023-01-11T11:34:10.308Z,331.88
2023-01-11T11:35:06.027Z,332.22
2023-01-11T11:36:01.401Z,331.21
2023-01-11T11:36:56.631Z,310.82